createdAt,value
2019-05-21T00:02:26.061Z,80.40
2019-05-21T00:05:30.395Z,80.20
2019-05-21T00:08:34.722Z,79.90
2019-05-21T00:11:39.142Z,79.40
2019-05-21T00:14:43.530Z,79.20
2019-05-21T00:17:48.132Z,79.20
2019-05-21T00:20:52.500Z,79.00
2019-05-21T00:23:56.806Z,78.70
2019-05-21T00:27:01.115Z,78.30
2019-05-21T00:30:41.113Z,78.10
2019-05-21T00:34:21.406Z,78.10
2019-05-21T00:38:01.690Z,77.80
2019-05-21T00:41:41.621Z,78.00
2019-05-21T00:44:45.935Z,78.40
2019-05-21T00:47:50.708Z,78.90
2019-05-21T00:50:55.705Z,78.90
2019-05-21T00:54:00.022Z,78.70
2019-05-21T00:57:04.324Z,78.40
2019-05-21T01:00:09.059Z,78.20
2019-05-21T01:03:13.822Z,78.20
2019-05-21T01:06:18.163Z,78.20
2019-05-21T01:09:22.550Z,78.40
2019-05-21T01:12:27.218Z,79.30
2019-05-21T01:15:31.572Z,78.90
2019-05-21T01:18:35.988Z,79.30
2019-05-21T01:21:40.321Z,79.30
2019-05-21T01:24:44.675Z,79.10
2019-05-21T01:27:49.061Z,78.90
2019-05-21T01:30:53.423Z,78.80
2019-05-21T01:33:57.751Z,79.20
2019-05-21T01:37:02.107Z,79.50
2019-05-21T01:40:06.752Z,80.10
2019-05-21T01:43:11.089Z,80.10
2019-05-21T01:46:15.412Z,80.80
2019-05-21T01:49:19.791Z,81.40
2019-05-21T01:52:24.170Z,81.40
2019-05-21T01:55:28.921Z,81.60
2019-05-21T01:58:33.657Z,81.80
2019-05-21T02:01:37.996Z,81.60
2019-05-21T02:04:42.733Z,81.30
2019-05-21T02:07:47.063Z,81.00
2019-05-21T02:10:51.372Z,80.70
2019-05-21T02:13:55.780Z,80.50
2019-05-21T02:17:00.057Z,80.30
2019-05-21T02:20:04.814Z,80.90
2019-05-21T02:23:09.134Z,80.30
2019-05-21T02:26:13.488Z,80.20
2019-05-21T02:29:17.869Z,80.10
2019-05-21T02:32:22.278Z,79.90
2019-05-21T02:35:26.705Z,79.60
2019-05-21T02:38:30.989Z,79.10
2019-05-21T02:41:35.276Z,78.50
2019-05-21T02:44:40.027Z,77.90
2019-05-21T02:47:44.338Z,77.40
2019-05-21T02:50:48.689Z,77.20
2019-05-21T02:53:53.009Z,77.10
2019-05-21T02:56:57.440Z,77.60
2019-05-21T03:00:03.374Z,77.60
2019-05-21T03:03:08.036Z,77.30
2019-05-21T03:06:14.649Z,77.40
2019-05-21T03:09:18.431Z,77.60
2019-05-21T03:12:22.778Z,78.20
2019-05-21T03:15:27.083Z,78.70
2019-05-21T03:18:31.790Z,78.70
2019-05-21T03:21:36.075Z,78.40
2019-05-21T03:24:40.471Z,78.80
2019-05-21T03:27:44.773Z,79.50
2019-05-21T03:30:49.201Z,80.30
2019-05-21T03:33:53.770Z,81.10
2019-05-21T03:36:58.156Z,81.90
2019-05-21T03:40:02.590Z,82.20
2019-05-21T03:43:06.984Z,82.30
2019-05-21T03:46:11.375Z,82.50
2019-05-21T03:49:15.672Z,82.10
2019-05-21T03:52:20.058Z,82.00
2019-05-21T03:55:24.472Z,82.40
2019-05-21T03:58:28.866Z,82.80
2019-05-21T04:01:33.944Z,83.70
2019-05-21T04:04:38.241Z,85.00
2019-05-21T04:07:42.529Z,85.70
2019-05-21T04:10:46.893Z,86.20
2019-05-21T04:13:51.214Z,87.00
2019-05-21T04:17:01.100Z,86.90
2019-05-21T04:20:06.581Z,86.10
2019-05-21T04:23:10.958Z,85.30
2019-05-21T04:26:15.344Z,83.20
2019-05-21T04:29:19.688Z,79.60
2019-05-21T04:32:24.079Z,77.30
2019-05-21T04:35:28.461Z,76.90
2019-05-21T04:38:32.846Z,77.30
2019-05-21T04:41:37.223Z,77.20
2019-05-21T04:44:41.551Z,76.70
2019-05-21T04:47:45.865Z,76.10
2019-05-21T04:50:50.261Z,77.20
2019-05-21T04:53:54.644Z,76.00
2019-05-21T04:56:59.040Z,73.90
2019-05-21T05:00:03.356Z,73.90
2019-05-21T05:03:07.745Z,74.60
2019-05-21T05:06:12.112Z,74.80
2019-05-21T05:09:16.435Z,74.80
2019-05-21T05:12:20.727Z,75.30
2019-05-21T05:15:25.132Z,75.90
2019-05-21T05:18:29.455Z,76.80
2019-05-21T05:21:33.828Z,77.20
2019-05-21T05:24:38.132Z,77.70
2019-05-21T05:27:42.446Z,78.10
2019-05-21T05:30:47.116Z,78.00
2019-05-21T05:33:51.887Z,78.50
2019-05-21T05:36:56.665Z,78.50
2019-05-21T05:40:01.761Z,80.00
2019-05-21T05:43:06.477Z,80.60
2019-05-21T05:46:10.801Z,81.00
2019-05-21T05:49:20.886Z,80.90
2019-05-21T05:52:25.500Z,80.60
2019-05-21T05:55:30.119Z,80.20
2019-05-21T05:58:34.669Z,79.50
2019-05-21T06:01:39.204Z,79.00
2019-05-21T06:04:43.549Z,80.00
2019-05-21T06:07:59.373Z,81.60
2019-05-21T06:10:53.878Z,81.00
2019-05-21T06:13:58.197Z,84.70
2019-05-21T06:17:03.062Z,85.90
2019-05-21T06:20:07.890Z,86.50
2019-05-21T06:23:12.278Z,85.40
2019-05-21T06:26:16.581Z,82.60
2019-05-21T06:29:21.004Z,81.20
2019-05-21T06:32:25.472Z,79.70
2019-05-21T06:35:29.848Z,81.90
2019-05-21T06:38:34.500Z,81.40
2019-05-21T06:41:38.818Z,82.30
2019-05-21T06:44:43.982Z,82.80
2019-05-21T06:47:48.672Z,80.90
2019-05-21T06:50:53.007Z,74.60
2019-05-21T06:53:57.966Z,72.70
2019-05-21T06:57:02.366Z,70.50
2019-05-21T07:00:08.876Z,70.50
2019-05-21T07:03:13.280Z,76.80
2019-05-21T07:06:17.627Z,80.90
2019-05-21T07:09:22.935Z,78.30
2019-05-21T07:12:27.263Z,76.90
2019-05-21T07:15:31.766Z,77.10
2019-05-21T07:18:36.125Z,75.20
2019-05-21T07:21:40.516Z,77.20
2019-05-21T07:24:44.888Z,75.90
2019-05-21T07:27:49.102Z,72.90
2019-05-21T07:30:53.778Z,71.60
2019-05-21T07:33:58.533Z,75.20
2019-05-21T07:37:02.756Z,81.30
2019-05-21T07:40:07.340Z,80.90
2019-05-21T07:43:11.674Z,79.50
2019-05-21T07:46:15.926Z,75.60
2019-05-21T07:49:20.602Z,76.70
2019-05-21T07:52:24.956Z,80.20
2019-05-21T07:55:29.295Z,76.90
2019-05-21T07:58:34.107Z,76.00
2019-05-21T08:01:38.509Z,75.00
2019-05-21T08:04:43.377Z,73.10
2019-05-21T08:07:47.781Z,68.90
2019-05-21T08:10:52.157Z,71.80
2019-05-21T08:13:57.110Z,72.40
2019-05-21T08:17:02.343Z,75.40
2019-05-21T08:20:09.796Z,72.00
2019-05-21T08:23:13.909Z,68.30
2019-05-21T08:26:18.220Z,66.20
2019-05-21T08:29:22.953Z,66.20
2019-05-21T08:32:27.684Z,67.50
2019-05-21T08:35:32.036Z,69.50
2019-05-21T08:38:36.662Z,70.60
2019-05-21T08:41:41.705Z,71.90
2019-05-21T08:44:46.124Z,70.90
2019-05-21T08:47:50.503Z,70.90
2019-05-21T08:50:54.913Z,70.80
2019-05-21T08:53:59.565Z,70.70
2019-05-21T08:57:04.138Z,70.50
2019-05-21T09:00:10.345Z,73.00
2019-05-21T09:03:15.149Z,75.20
2019-05-21T09:06:19.973Z,79.00
2019-05-21T09:09:24.260Z,79.30
2019-05-21T09:12:29.499Z,75.10
2019-05-21T09:15:34.001Z,73.90
2019-05-21T09:18:39.026Z,70.30
2019-05-21T09:21:43.423Z,69.30
2019-05-21T09:24:48.503Z,67.00
2019-05-21T09:27:53.232Z,68.20
2019-05-21T09:31:01.447Z,72.60
2019-05-21T09:34:04.043Z,75.20
2019-05-21T09:37:19.283Z,70.90
2019-05-21T09:40:17.366Z,72.10
2019-05-21T09:43:21.707Z,71.90
2019-05-21T09:46:26.659Z,73.70
2019-05-21T09:49:30.962Z,71.50
2019-05-21T09:52:35.854Z,70.80
2019-05-21T09:55:40.480Z,72.50
2019-05-21T09:58:46.382Z,71.50
2019-05-21T10:01:52.767Z,67.20
2019-05-21T10:04:57.107Z,67.10
2019-05-21T10:08:01.521Z,70.40
2019-05-21T10:11:05.861Z,74.10
2019-05-21T10:14:10.125Z,72.00
2019-05-21T10:17:15.081Z,71.80
2019-05-21T10:20:19.529Z,75.60
2019-05-21T10:23:24.183Z,76.50
2019-05-21T10:26:29.250Z,76.00
2019-05-21T10:29:33.668Z,71.90
2019-05-21T10:32:38.343Z,71.10
2019-05-21T10:35:43.450Z,72.40
2019-05-21T10:38:47.788Z,74.80
2019-05-21T10:41:52.524Z,74.50
2019-05-21T10:44:56.897Z,74.40
2019-05-21T10:48:01.616Z,75.30
2019-05-21T10:51:06.082Z,75.00
2019-05-21T10:54:10.774Z,74.30
2019-05-21T10:57:15.568Z,71.50
2019-05-21T11:00:23.112Z,70.10
2019-05-21T11:03:51.950Z,68.50
2019-05-21T11:06:56.316Z,67.80
2019-05-21T11:10:00.634Z,68.40
2019-05-21T11:13:05.481Z,68.70
2019-05-21T11:16:11.064Z,67.40
2019-05-21T11:19:15.436Z,67.50
2019-05-21T11:22:19.812Z,67.10
2019-05-21T11:25:24.510Z,65.20
2019-05-21T11:28:28.870Z,65.00
2019-05-21T11:31:33.203Z,67.30
2019-05-21T11:34:37.505Z,69.30
2019-05-21T11:37:42.271Z,62.30
2019-05-21T11:40:50.747Z,59.80
2019-05-21T11:43:52.663Z,59.70
2019-05-21T11:46:56.995Z,59.20
2019-05-21T11:50:01.688Z,57.00
2019-05-21T11:53:06.055Z,55.00
2019-05-21T11:56:11.074Z,56.20
2019-05-21T11:59:16.083Z,56.90
2019-05-21T12:02:20.493Z,59.80
2019-05-21T12:05:24.861Z,60.60
2019-05-21T12:08:29.550Z,58.70
2019-05-21T12:11:34.573Z,60.20
2019-05-21T12:14:40.284Z,56.70
2019-05-21T12:17:44.720Z,56.50
2019-05-21T12:20:50.105Z,56.20
2019-05-21T12:23:54.501Z,56.50
2019-05-21T12:26:59.670Z,56.50
2019-05-21T12:30:05.464Z,57.00
2019-05-21T12:33:10.207Z,56.90
2019-05-21T12:36:14.509Z,58.10
2019-05-21T12:39:18.837Z,58.20
2019-05-21T12:42:23.167Z,57.80
2019-05-21T12:45:27.609Z,50.10
2019-05-21T12:48:31.998Z,47.90
2019-05-21T12:51:36.301Z,48.20
2019-05-21T12:54:40.639Z,49.60
2019-05-21T12:57:45.026Z,51.90
2019-05-21T13:00:49.341Z,53.30
2019-05-21T13:03:55.480Z,54.70
2019-05-21T13:07:00.285Z,53.70
2019-05-21T13:10:05.346Z,53.80
2019-05-21T13:13:09.922Z,48.40
2019-05-21T13:16:14.403Z,51.10
2019-05-21T13:19:18.706Z,49.30
2019-05-21T13:22:23.065Z,47.90
2019-05-21T13:25:27.370Z,48.80
2019-05-21T13:28:31.760Z,45.50
2019-05-21T13:31:36.854Z,46.80
2019-05-21T13:34:41.209Z,45.20
2019-05-21T13:37:45.480Z,46.90
2019-05-21T13:40:51.795Z,44.30
2019-05-21T13:43:56.521Z,46.50
2019-05-21T13:47:00.823Z,48.80
2019-05-21T13:50:05.992Z,49.30
2019-05-21T13:53:10.342Z,48.10
2019-05-21T13:56:14.686Z,46.90
2019-05-21T13:59:19.256Z,48.20
2019-05-21T14:02:23.545Z,49.50
2019-05-21T14:05:31.632Z,49.30
2019-05-21T14:08:36.044Z,50.00
2019-05-21T14:11:40.497Z,50.40
2019-05-21T14:14:44.825Z,50.50
2019-05-21T14:17:49.134Z,51.30
2019-05-21T14:20:53.882Z,52.30
2019-05-21T14:23:58.188Z,53.40
2019-05-21T14:27:02.525Z,55.10
2019-05-21T14:30:07.386Z,56.20
2019-05-21T14:33:11.779Z,56.90
2019-05-21T14:36:16.217Z,57.00
2019-05-21T14:39:20.594Z,56.30
2019-05-21T14:42:24.989Z,55.00
2019-05-21T14:45:33.761Z,53.30
2019-05-21T14:48:35.461Z,53.60
2019-05-21T14:51:39.786Z,54.10
2019-05-21T14:54:44.140Z,54.50
2019-05-21T14:57:48.355Z,53.40
2019-05-21T15:00:52.758Z,51.40
2019-05-21T15:03:57.144Z,50.90
2019-05-21T15:07:01.582Z,50.00
2019-05-21T15:10:08.776Z,50.40
2019-05-21T15:13:13.193Z,51.60
2019-05-21T15:16:17.464Z,52.30
2019-05-21T15:19:21.857Z,53.00
2019-05-21T15:22:26.257Z,53.80
2019-05-21T15:25:30.924Z,54.50
2019-05-21T15:28:36.045Z,54.10
2019-05-21T15:31:40.382Z,54.70
2019-05-21T15:34:44.742Z,55.30
2019-05-21T15:37:49.331Z,55.70
2019-05-21T15:41:09.846Z,55.80
2019-05-21T15:43:59.776Z,55.40
2019-05-21T15:47:04.207Z,55.30
2019-05-21T15:50:08.762Z,55.50
2019-05-21T15:53:13.144Z,55.80
2019-05-21T15:56:17.473Z,55.70
2019-05-21T15:59:21.780Z,55.50
2019-05-21T16:02:26.042Z,55.40
2019-05-21T16:05:31.158Z,55.80
2019-05-21T16:08:36.083Z,55.50
2019-05-21T16:11:40.446Z,55.60
2019-05-21T16:14:44.779Z,55.60
2019-05-21T16:17:49.153Z,55.70
2019-05-21T16:20:53.474Z,56.00
2019-05-21T16:23:57.829Z,56.40
2019-05-21T16:27:02.134Z,56.40
2019-05-21T16:30:06.972Z,56.60
2019-05-21T16:33:11.308Z,56.70
2019-05-21T16:36:15.698Z,56.80
2019-05-21T16:39:22.609Z,56.90
2019-05-21T16:42:26.939Z,56.80
2019-05-21T16:45:31.264Z,55.50
2019-05-21T16:48:35.594Z,55.50
2019-05-21T16:52:13.412Z,55.10
2019-05-21T16:55:17.947Z,55.60
2019-05-21T16:58:22.269Z,55.50
2019-05-21T17:01:26.633Z,54.70
2019-05-21T17:04:32.697Z,55.40
2019-05-21T17:07:37.182Z,55.60
2019-05-21T17:10:41.572Z,55.90
2019-05-21T17:13:45.927Z,56.00
2019-05-21T17:16:50.320Z,56.30
2019-05-21T17:19:54.658Z,56.60
2019-05-21T17:22:59.064Z,57.00
2019-05-21T17:26:05.676Z,57.60
2019-05-21T17:29:10.056Z,58.00
2019-05-21T17:32:14.463Z,58.40
2019-05-21T17:35:18.816Z,58.90
2019-05-21T17:38:24.611Z,59.70
2019-05-21T17:41:29.250Z,59.50
2019-05-21T17:44:34.453Z,59.90
2019-05-21T17:47:38.856Z,60.30
2019-05-21T17:50:43.598Z,60.50
2019-05-21T17:53:47.973Z,60.80
2019-05-21T17:56:52.370Z,60.90
2019-05-21T17:59:58.089Z,61.00
2019-05-21T18:03:03.245Z,61.20
2019-05-21T18:06:08.675Z,61.10
2019-05-21T18:09:17.523Z,61.20
2019-05-21T18:12:31.607Z,61.30
2019-05-21T18:15:27.959Z,61.50
2019-05-21T18:18:32.896Z,61.70
2019-05-21T18:21:38.567Z,61.90
2019-05-21T18:24:43.179Z,61.90
2019-05-21T18:27:48.141Z,62.40
2019-05-21T18:30:53.889Z,62.10
2019-05-21T18:33:58.277Z,62.10
2019-05-21T18:37:02.604Z,62.20
2019-05-21T18:40:08.853Z,62.30
2019-05-21T18:43:13.265Z,62.30
2019-05-21T18:46:17.946Z,62.30
2019-05-21T18:49:22.753Z,62.40
2019-05-21T18:52:27.572Z,62.50
2019-05-21T18:55:31.962Z,62.60
2019-05-21T18:58:37.154Z,62.80
2019-05-21T19:01:41.569Z,62.90
2019-05-21T19:04:45.965Z,63.20
2019-05-21T19:07:50.389Z,63.30
2019-05-21T19:10:55.915Z,63.50
2019-05-21T19:14:00.306Z,63.60
2019-05-21T19:17:08.130Z,63.90
2019-05-21T19:20:13.909Z,64.00
2019-05-21T19:23:18.295Z,64.80
2019-05-21T19:26:22.911Z,65.70
2019-05-21T19:29:27.635Z,66.30
2019-05-21T19:32:32.287Z,67.20
2019-05-21T19:35:37.941Z,68.00
2019-05-21T19:38:42.303Z,68.30
2019-05-21T19:41:46.591Z,68.70
2019-05-21T19:44:51.044Z,68.90
2019-05-21T19:47:56.988Z,69.10
2019-05-21T19:51:01.356Z,69.50
2019-05-21T19:54:05.954Z,69.30
2019-05-21T19:57:10.304Z,69.40
2019-05-21T20:00:18.300Z,69.50
2019-05-21T20:03:22.974Z,69.50
2019-05-21T20:06:27.710Z,69.70
2019-05-21T20:09:33.094Z,69.60
2019-05-21T20:12:37.625Z,69.50
2019-05-21T20:15:42.465Z,69.50
2019-05-21T20:18:46.793Z,69.60
2019-05-21T20:21:51.624Z,69.50
2019-05-21T20:24:56.755Z,69.50
2019-05-21T20:28:01.444Z,69.60
2019-05-21T20:31:06.369Z,69.80
2019-05-21T20:34:11.395Z,69.80
2019-05-21T20:37:18.655Z,70.00
2019-05-21T20:40:23.330Z,70.00
2019-05-21T20:43:28.098Z,70.20
2019-05-21T20:46:32.530Z,70.40
2019-05-21T20:49:37.053Z,70.40
2019-05-21T20:52:42.106Z,70.60
2019-05-21T20:55:46.470Z,70.70
2019-05-21T20:58:50.839Z,70.90
2019-05-21T21:01:56.228Z,71.00
2019-05-21T21:05:00.838Z,71.10
2019-05-21T21:08:05.568Z,71.10
2019-05-21T21:11:11.188Z,71.30
2019-05-21T21:14:18.300Z,71.40
2019-05-21T21:17:23.382Z,71.50
2019-05-21T21:20:27.756Z,71.60
2019-05-21T21:23:34.312Z,71.70
2019-05-21T21:26:38.887Z,71.80
2019-05-21T21:29:43.486Z,72.00
2019-05-21T21:32:47.993Z,71.90
2019-05-21T21:35:52.912Z,72.00
2019-05-21T21:38:57.760Z,72.00
2019-05-21T21:42:02.851Z,72.20
2019-05-21T21:45:07.801Z,72.40
2019-05-21T21:48:12.248Z,72.30
2019-05-21T21:51:17.565Z,72.40
2019-05-21T21:54:22.588Z,72.30
2019-05-21T21:57:26.879Z,72.40
2019-05-21T22:00:52.835Z,72.60
2019-05-21T22:04:00.888Z,72.70
2019-05-21T22:07:05.871Z,72.80
2019-05-21T22:10:11.224Z,73.00
2019-05-21T22:13:15.951Z,72.90
2019-05-21T22:16:21.102Z,73.10
2019-05-21T22:19:26.919Z,73.00
2019-05-21T22:22:31.686Z,73.00
2019-05-21T22:25:36.077Z,73.20
2019-05-21T22:28:40.397Z,73.30
2019-05-21T22:31:44.903Z,73.40
2019-05-21T22:34:49.249Z,73.50
2019-05-21T22:37:53.585Z,73.50
2019-05-21T22:40:57.938Z,73.60
2019-05-21T22:44:02.675Z,73.80
2019-05-21T22:47:07.488Z,73.90
2019-05-21T22:50:12.236Z,73.80
2019-05-21T22:53:16.659Z,73.90
2019-05-21T22:56:20.995Z,74.00
2019-05-21T22:59:25.319Z,74.10
2019-05-21T23:02:31.720Z,74.20
2019-05-21T23:05:36.102Z,74.20
2019-05-21T23:08:40.452Z,74.30
2019-05-21T23:11:44.732Z,74.40
2019-05-21T23:14:49.673Z,74.40
2019-05-21T23:17:54.091Z,74.20
2019-05-21T23:20:59.111Z,75.10
2019-05-21T23:24:05.672Z,74.30
2019-05-21T23:27:12.249Z,74.30
2019-05-21T23:30:17.453Z,74.40
2019-05-21T23:33:23.759Z,74.50
2019-05-21T23:36:28.981Z,74.50
2019-05-21T23:39:34.840Z,74.50
2019-05-21T23:42:39.644Z,74.50
2019-05-21T23:45:44.386Z,74.50
2019-05-21T23:48:49.411Z,74.60
2019-05-21T23:51:53.786Z,74.60
2019-05-21T23:54:58.417Z,74.60
2019-05-21T23:58:03.026Z,74.70
